Bardwell, KY (42023)

6:21 PM CST on February 06, 2016 (GMT -0600)
Reddick Farms | | Change Station
CLOSE
Current Station
Personal Weather Station
Location: Bardwell, KY
Elevation: 400 ft
Nearby Weather Stations
Active Advisory: Flood Warning

Elev 400 ft 36.83 °N, 88.92 °W | Updated 9 minutes ago

Clear
Clear
45.4 °F
Feels Like 45 °F
N
2.0
Wind Variable Wind from SSW
Gusts 4.0 mph

Today
High -- | Low -- °F
--% Chance of Precip.
Yesterday
High -- | Low -- °F
Precip. -- in
Pressure 30.27 in
Visibility 10.0 miles
Clouds Clear
Windchill 45 °F
Dew Point 23 °F
Humidity 43%
Rainfall 0.00 in
Snow Depth Not available.
6:54 AM 5:26 PM
Waning Crescent, 3% visible
METAR KCIR 062355Z AUTO 19006KT 10SM CLR 08/M02 A3027 RMK AO2 T00801021 10121 20080
Pressure 30.27 in
Visibility 10.0 miles
Clouds Clear
Windchill 45 °F
Dew Point 23 °F
Humidity 43%
Rainfall 0.00 in
Snow Depth Not available.
6:54 AM 5:26 PM
Waning Crescent, 3% visible
METAR KCIR 062355Z AUTO 19006KT 10SM CLR 08/M02 A3027 RMK AO2 T00801021 10121 20080

10-Day Weather Forecast

Almanac

Astronomy

Feb. 06, 2016 Rise Set
Actual Time
Civil Twilight
Nautical Twilight
Astronomical Twilight
Moon
Length of Visible Light
Length of Day
Tomorrow will be .
, % of the Moon is Illuminated

Today's Extremes

State Highs State Lows

Community

WunderPhotos

Upload Photos

1,891,106 photos uploaded!

WunderBlog® & News

Nearby

Air Quality

  Air Quality AQ Index Pollutant
Not available.

Snow Depth

Station Depth Elevation

Earthquake Activity

City Distance Mag. Time & Date
Minimum magnitude displayed is 2.5.

Coastal Water Temperatures

Place Temperature

Stations

Nearby Weather Stations

Station Location Temp. Windchill Dew Point Humidity Wind Precip. Elev Updated Type
                   

Watches & Warnings

Flood Warning
Issued: 11:35 AM CST Feb. 6, 2016 – National Weather Service

The Flood Warning continues for
the Ohio River at Cairo.
* From Sunday evening until further notice.
* At 11:00 am Saturday the stage was 38.1 feet.
* Flood stage is 40.0 feet.
* Minor flooding is forecast.
* Forecast... rise above flood stage by tomorrow late evening and
continue to rise to near 41.0 feet by Thursday morning.
* Impact... at 40.0 feet... minor flooding occurs affecting mainly
agricultural bottomland and low lying areas.


Lat... Lon 3709 8946 3651 8918 3680 8900 3709 8907
      3717 8916